Time,TemperatureF,DewpointF,PressureIn,WindDirection,WindDirectionDegrees,WindSpeedMPH,WindSpeedGustMPH,Humidity,HourlyPrecipIn,Conditions,Clouds,dailyrainin,SoftwareType,DateUTC
2013-03-18 00:00:00,22.0,-99.9,-100.00,West,272,19.0,34.0,-999,-99.99,,,-99.99,,2013-03-18 06:00:00,
2013-03-18 00:32:00,22.0,-99.9,-100.00,West,272,19.0,34.0,-999,-99.99,,,-99.99,,2013-03-18 06:32:00,
2013-03-18 00:42:00,22.0,-99.9,-100.00,West,272,19.0,34.0,-999,-99.99,,,-99.99,,2013-03-18 06:42:00,
2013-03-18 00:53:00,22.0,-99.9,-100.00,West,272,19.0,34.0,-999,-99.99,,,-99.99,,2013-03-18 06:53:00,
2013-03-18 01:00:00,21.0,-99.9,-100.00,West,263,28.0,29.0,-999,-99.99,,,-99.99,,2013-03-18 07:00:00,
2013-03-18 01:33:00,21.0,-99.9,-100.00,West,263,28.0,29.0,-999,-99.99,,,-99.99,,2013-03-18 07:33:00,
2013-03-18 01:43:00,21.0,-99.9,-100.00,West,263,28.0,29.0,-999,-99.99,,,-99.99,,2013-03-18 07:43:00,
2013-03-18 01:53:00,21.0,-99.9,-100.00,West,263,28.0,29.0,-999,-99.99,,,-99.99,,2013-03-18 07:53:00,
2013-03-18 02:00:00,21.0,-99.9,-100.00,West,260,18.0,23.0,-999,-99.99,,,-99.99,,2013-03-18 08:00:00,
2013-03-18 02:33:00,21.0,-99.9,-100.00,West,260,18.0,23.0,-999,-99.99,,,-99.99,,2013-03-18 08:33:00,
2013-03-18 02:43:00,21.0,-99.9,-100.00,West,260,18.0,23.0,-999,-99.99,,,-99.99,,2013-03-18 08:43:00,
2013-03-18 02:53:00,21.0,-99.9,-100.00,West,260,18.0,23.0,-999,-99.99,,,-99.99,,2013-03-18 08:53:00,
2013-03-18 03:00:00,19.0,-99.9,-100.00,WSW,248,12.0,17.0,-999,-99.99,,,-99.99,,2013-03-18 09:00:00,
2013-03-18 03:33:00,19.0,-99.9,-100.00,WSW,248,12.0,17.0,-999,-99.99,,,-99.99,,2013-03-18 09:33:00,
2013-03-18 03:43:00,19.0,-99.9,-100.00,WSW,248,12.0,17.0,-999,-99.99,,,-99.99,,2013-03-18 09:43:00,
2013-03-18 03:53:00,19.0,-99.9,-100.00,WSW,248,12.0,17.0,-999,-99.99,,,-99.99,,2013-03-18 09:53:00,
2013-03-18 04:00:00,18.0,-99.9,-100.00,WSW,245,11.0,14.0,-999,-99.99,,,-99.99,,2013-03-18 10:00:00,
2013-03-18 04:33:00,18.0,-99.9,-100.00,WSW,245,11.0,14.0,-999,-99.99,,,-99.99,,2013-03-18 10:33:00,
2013-03-18 04:42:00,18.0,-99.9,-100.00,WSW,245,11.0,14.0,-999,-99.99,,,-99.99,,2013-03-18 10:42:00,
2013-03-18 04:53:00,18.0,-99.9,-100.00,WSW,245,11.0,14.0,-999,-99.99,,,-99.99,,2013-03-18 10:53:00,
2013-03-18 05:00:00,18.0,-99.9,-100.00,SW,234,11.0,14.0,-999,-99.99,,,-99.99,,2013-03-18 11:00:00,
2013-03-18 05:32:00,18.0,-99.9,-100.00,SW,234,11.0,14.0,-999,-99.99,,,-99.99,,2013-03-18 11:32:00,
2013-03-18 05:43:00,18.0,-99.9,-100.00,SW,234,11.0,14.0,-999,-99.99,,,-99.99,,2013-03-18 11:43:00,
2013-03-18 05:53:00,18.0,-99.9,-100.00,SW,234,11.0,14.0,-999,-99.99,,,-99.99,,2013-03-18 11:53:00,
2013-03-18 06:00:00,18.0,-99.9,-100.00,WSW,255,10.0,14.0,-999,-99.99,,,-99.99,,2013-03-18 12:00:00,
2013-03-18 06:33:00,18.0,-99.9,-100.00,WSW,255,10.0,14.0,-999,-99.99,,,-99.99,,2013-03-18 12:33:00,
2013-03-18 06:43:00,18.0,-99.9,-100.00,WSW,255,10.0,14.0,-999,-99.99,,,-99.99,,2013-03-18 12:43:00,
2013-03-18 06:52:00,18.0,-99.9,-100.00,WSW,255,10.0,14.0,-999,-99.99,,,-99.99,,2013-03-18 12:52:00,
2013-03-18 07:00:00,20.0,-99.9,-100.00,WSW,258,19.0,22.0,-999,-99.99,,,-99.99,,2013-03-18 13:00:00,
2013-03-18 07:33:00,20.0,-99.9,-100.00,WSW,258,19.0,22.0,-999,-99.99,,,-99.99,,2013-03-18 13:33:00,
2013-03-18 07:43:00,20.0,-99.9,-100.00,WSW,258,19.0,22.0,-999,-99.99,,,-99.99,,2013-03-18 13:43:00,
2013-03-18 07:52:00,20.0,-99.9,-100.00,WSW,258,19.0,22.0,-999,-99.99,,,-99.99,,2013-03-18 13:52:00,
2013-03-18 08:00:00,21.0,-99.9,-100.00,West,267,21.0,23.0,-999,-99.99,,,-99.99,,2013-03-18 14:00:00,
2013-03-18 08:32:00,21.0,-99.9,-100.00,West,267,21.0,23.0,-999,-99.99,,,-99.99,,2013-03-18 14:32:00,
2013-03-18 08:42:00,21.0,-99.9,-100.00,West,267,21.0,23.0,-999,-99.99,,,-99.99,,2013-03-18 14:42:00,
2013-03-18 08:52:00,21.0,-99.9,-100.00,West,267,21.0,23.0,-999,-99.99,,,-99.99,,2013-03-18 14:52:00,
2013-03-18 09:00:00,24.0,-99.9,-100.00,West,267,19.0,31.0,-999,-99.99,,,-99.99,,2013-03-18 15:00:00,
2013-03-18 09:33:00,24.0,-99.9,-100.00,West,267,19.0,31.0,-999,-99.99,,,-99.99,,2013-03-18 15:33:00,
2013-03-18 09:43:00,24.0,-99.9,-100.00,West,267,19.0,31.0,-999,-99.99,,,-99.99,,2013-03-18 15:43:00,
2013-03-18 09:52:00,24.0,-99.9,-100.00,West,267,19.0,31.0,-999,-99.99,,,-99.99,,2013-03-18 15:52:00,
2013-03-18 10:00:00,25.0,-99.9,-100.00,West,267,29.0,31.0,-999,-99.99,,,-99.99,,2013-03-18 16:00:00,
2013-03-18 10:33:00,25.0,-99.9,-100.00,West,267,29.0,31.0,-999,-99.99,,,-99.99,,2013-03-18 16:33:00,
2013-03-18 10:42:00,25.0,-99.9,-100.00,West,267,29.0,31.0,-999,-99.99,,,-99.99,,2013-03-18 16:42:00,
2013-03-18 10:53:00,25.0,-99.9,-100.00,West,267,29.0,31.0,-999,-99.99,,,-99.99,,2013-03-18 16:53:00,
2013-03-18 11:00:00,27.0,-99.9,-100.00,West,263,26.0,34.0,-999,-99.99,,,-99.99,,2013-03-18 17:00:00,
2013-03-18 11:33:00,27.0,-99.9,-100.00,West,263,26.0,34.0,-999,-99.99,,,-99.99,,2013-03-18 17:33:00,
2013-03-18 11:43:00,27.0,-99.9,-100.00,West,263,26.0,34.0,-999,-99.99,,,-99.99,,2013-03-18 17:43:00,
2013-03-18 11:52:00,27.0,-99.9,-100.00,West,263,26.0,34.0,-999,-99.99,,,-99.99,,2013-03-18 17:52:00,
2013-03-18 12:00:00,29.0,-99.9,-100.00,West,267,31.0,39.0,-999,-99.99,,,-99.99,,2013-03-18 18:00:00,
2013-03-18 12:32:00,29.0,-99.9,-100.00,West,267,31.0,39.0,-999,-99.99,,,-99.99,,2013-03-18 18:32:00,
2013-03-18 12:42:00,29.0,-99.9,-100.00,West,267,31.0,39.0,-999,-99.99,,,-99.99,,2013-03-18 18:42:00,
2013-03-18 12:52:00,29.0,-99.9,-100.00,West,267,31.0,39.0,-999,-99.99,,,-99.99,,2013-03-18 18:52:00,
2013-03-18 13:00:00,32.0,-99.9,-100.00,West,260,37.0,37.0,-999,-99.99,,,-99.99,,2013-03-18 19:00:00,
2013-03-18 13:33:00,32.0,-99.9,-100.00,West,260,37.0,37.0,-999,-99.99,,,-99.99,,2013-03-18 19:33:00,
2013-03-18 13:42:00,32.0,-99.9,-100.00,West,260,37.0,37.0,-999,-99.99,,,-99.99,,2013-03-18 19:42:00,
2013-03-18 13:52:00,32.0,-99.9,-100.00,West,260,37.0,37.0,-999,-99.99,,,-99.99,,2013-03-18 19:52:00,
2013-03-18 14:00:00,33.0,-99.9,-100.00,WSW,256,27.0,34.0,-999,-99.99,,,-99.99,,2013-03-18 20:00:00,
2013-03-18 14:33:00,33.0,-99.9,-100.00,WSW,256,27.0,34.0,-999,-99.99,,,-99.99,,2013-03-18 20:33:00,
2013-03-18 14:43:00,33.0,-99.9,-100.00,WSW,256,27.0,34.0,-999,-99.99,,,-99.99,,2013-03-18 20:43:00,
2013-03-18 14:53:00,33.0,-99.9,-100.00,WSW,256,27.0,34.0,-999,-99.99,,,-99.99,,2013-03-18 20:53:00,
2013-03-18 15:00:00,33.0,-99.9,-100.00,West,276,35.0,35.0,-999,-99.99,,,-99.99,,2013-03-18 21:00:00,
2013-03-18 15:33:00,33.0,-99.9,-100.00,West,276,35.0,35.0,-999,-99.99,,,-99.99,,2013-03-18 21:33:00,
2013-03-18 15:43:00,33.0,-99.9,-100.00,West,276,35.0,35.0,-999,-99.99,,,-99.99,,2013-03-18 21:43:00,
2013-03-18 15:53:00,33.0,-99.9,-100.00,West,276,35.0,35.0,-999,-99.99,,,-99.99,,2013-03-18 21:53:00,
2013-03-18 16:00:00,31.0,-99.9,-100.00,WSW,252,19.0,34.0,-999,-99.99,,,-99.99,,2013-03-18 22:00:00,
2013-03-18 16:34:00,31.0,-99.9,-100.00,WSW,252,19.0,34.0,-999,-99.99,,,-99.99,,2013-03-18 22:34:00,
2013-03-18 16:43:00,31.0,-99.9,-100.00,WSW,252,19.0,34.0,-999,-99.99,,,-99.99,,2013-03-18 22:43:00,
2013-03-18 16:53:00,31.0,-99.9,-100.00,WSW,252,19.0,34.0,-999,-99.99,,,-99.99,,2013-03-18 22:53:00,
2013-03-18 17:00:00,32.0,-99.9,-100.00,West,263,30.0,40.0,-999,-99.99,,,-99.99,,2013-03-18 23:00:00,
2013-03-18 17:33:00,32.0,-99.9,-100.00,West,263,30.0,40.0,-999,-99.99,,,-99.99,,2013-03-18 23:33:00,
2013-03-18 17:43:00,32.0,-99.9,-100.00,West,263,30.0,40.0,-999,-99.99,,,-99.99,,2013-03-18 23:43:00,
2013-03-18 17:53:00,32.0,-99.9,-100.00,West,263,30.0,40.0,-999,-99.99,,,-99.99,,2013-03-18 23:53:00,
2013-03-18 19:00:00,31.0,-99.9,-100.00,West,276,29.0,34.0,-999,-99.99,,,-99.99,,2013-03-19 01:00:00,
2013-03-18 19:33:00,31.0,-99.9,-100.00,West,276,29.0,34.0,-999,-99.99,,,-99.99,,2013-03-19 01:33:00,
2013-03-18 19:43:00,31.0,-99.9,-100.00,West,276,29.0,34.0,-999,-99.99,,,-99.99,,2013-03-19 01:43:00,
2013-03-18 19:53:00,31.0,-99.9,-100.00,West,276,29.0,34.0,-999,-99.99,,,-99.99,,2013-03-19 01:53:00,
2013-03-18 20:00:00,30.0,-99.9,-100.00,West,270,36.0,36.0,-999,-99.99,,,-99.99,,2013-03-19 02:00:00,
2013-03-18 20:33:00,30.0,-99.9,-100.00,West,270,36.0,36.0,-999,-99.99,,,-99.99,,2013-03-19 02:33:00,
2013-03-18 20:43:00,30.0,-99.9,-100.00,West,270,36.0,36.0,-999,-99.99,,,-99.99,,2013-03-19 02:43:00,
2013-03-18 20:53:00,30.0,-99.9,-100.00,West,270,36.0,36.0,-999,-99.99,,,-99.99,,2013-03-19 02:53:00,
2013-03-18 21:00:00,29.0,-99.9,-100.00,WNW,290,20.0,26.0,-999,-99.99,,,-99.99,,2013-03-19 03:00:00,
2013-03-18 21:33:00,29.0,-99.9,-100.00,WNW,290,20.0,26.0,-999,-99.99,,,-99.99,,2013-03-19 03:33:00,
2013-03-18 21:44:00,29.0,-99.9,-100.00,WNW,290,20.0,26.0,-999,-99.99,,,-99.99,,2013-03-19 03:44:00,
2013-03-18 21:54:00,29.0,-99.9,-100.00,WNW,290,20.0,26.0,-999,-99.99,,,-99.99,,2013-03-19 03:54:00,
2013-03-18 22:00:00,28.0,-99.9,-100.00,West,280,16.0,23.0,-999,-99.99,,,-99.99,,2013-03-19 04:00:00,
2013-03-18 22:34:00,28.0,-99.9,-100.00,West,280,16.0,23.0,-999,-99.99,,,-99.99,,2013-03-19 04:34:00,
2013-03-18 22:43:00,28.0,-99.9,-100.00,West,280,16.0,23.0,-999,-99.99,,,-99.99,,2013-03-19 04:43:00,
2013-03-18 22:53:00,28.0,-99.9,-100.00,West,280,16.0,23.0,-999,-99.99,,,-99.99,,2013-03-19 04:53:00,
2013-03-18 23:00:00,29.0,-99.9,-100.00,WNW,283,12.0,15.0,-999,-99.99,,,-99.99,,2013-03-19 05:00:00,
2013-03-18 23:33:00,29.0,-99.9,-100.00,WNW,283,12.0,15.0,-999,-99.99,,,-99.99,,2013-03-19 05:33:00,
2013-03-18 23:43:00,29.0,-99.9,-100.00,WNW,283,12.0,15.0,-999,-99.99,,,-99.99,,2013-03-19 05:43:00,
2013-03-18 23:52:00,29.0,-99.9,-100.00,WNW,283,12.0,15.0,-999,-99.99,,,-99.99,,2013-03-19 05:52:00,